createdAt,value
2018-01-15T00:02:02.936Z,1.6
2018-01-15T00:07:02.948Z,1.5
2018-01-15T00:12:03.120Z,1.5
2018-01-15T00:17:03.173Z,1.4
2018-01-15T00:22:02.905Z,1.3
2018-01-15T00:27:03.408Z,1.3
2018-01-15T00:32:03.032Z,1.3
2018-01-15T00:37:03.399Z,1.3
2018-01-15T00:42:03.298Z,1.2
2018-01-15T00:47:03.342Z,1.2
2018-01-15T00:52:03.021Z,1.2
2018-01-15T00:57:02.920Z,1.2
2018-01-15T01:02:02.777Z,1.1
2018-01-15T01:07:02.877Z,1.0
2018-01-15T01:12:02.903Z,1.0
2018-01-15T01:17:02.936Z,1.1
2018-01-15T01:22:03.175Z,1.1
2018-01-15T01:27:03.490Z,1.1
2018-01-15T01:32:03.423Z,1.2
2018-01-15T01:37:03.233Z,1.1
2018-01-15T01:42:02.985Z,1.1
2018-01-15T01:47:03.102Z,1.0
2018-01-15T01:52:03.087Z,1.0
2018-01-15T01:57:02.867Z,1.0
2018-01-15T02:02:02.807Z,1.0
2018-01-15T02:07:03.578Z,0.9
2018-01-15T02:12:03.486Z,0.9
2018-01-15T02:17:03.423Z,0.9
2018-01-15T02:22:02.967Z,0.7
2018-01-15T02:27:02.800Z,0.6
2018-01-15T02:32:03.203Z,0.6
2018-01-15T02:37:03.076Z,0.5
2018-01-15T02:42:02.975Z,0.6
2018-01-15T02:47:02.969Z,0.5
2018-01-15T02:52:02.747Z,0.4
2018-01-15T02:57:03.188Z,0.5
2018-01-15T03:02:03.063Z,0.6
2018-01-15T03:07:03.223Z,0.5
2018-01-15T03:12:02.997Z,0.5
2018-01-15T03:17:03.112Z,0.5
2018-01-15T03:22:02.746Z,0.5
2018-01-15T03:27:03.812Z,0.5
2018-01-15T03:32:03.531Z,0.6
2018-01-15T03:37:03.358Z,0.6
2018-01-15T03:42:03.452Z,0.7
2018-01-15T03:47:03.576Z,1.0
2018-01-15T03:52:03.244Z,1.0
2018-01-15T03:57:03.146Z,1.0
2018-01-15T04:02:03.372Z,1.1
2018-01-15T04:07:03.677Z,1.1
2018-01-15T04:12:03.706Z,1.1
2018-01-15T04:17:03.068Z,1.3
2018-01-15T04:22:03.245Z,1.4
2018-01-15T04:27:03.334Z,1.3
2018-01-15T04:32:03.230Z,1.4
2018-01-15T04:37:03.154Z,1.4
2018-01-15T04:42:03.146Z,1.3
2018-01-15T04:47:03.376Z,1.4
2018-01-15T04:52:03.373Z,1.4
2018-01-15T04:57:03.487Z,1.3
2018-01-15T05:02:03.551Z,1.4
2018-01-15T05:07:02.920Z,1.3
2018-01-15T05:12:03.096Z,1.3
2018-01-15T05:17:03.261Z,1.3
2018-01-15T05:22:03.283Z,1.3
2018-01-15T05:27:03.368Z,1.3
2018-01-15T05:32:03.444Z,1.4
2018-01-15T05:37:03.625Z,1.3
2018-01-15T05:42:02.730Z,1.3
2018-01-15T05:47:03.029Z,1.3
2018-01-15T05:52:03.395Z,1.2
2018-01-15T05:57:03.353Z,1.1
2018-01-15T06:02:03.539Z,1.0
2018-01-15T06:07:03.697Z,1.0
2018-01-15T06:12:02.982Z,1.0
2018-01-15T06:17:03.153Z,0.9
2018-01-15T06:22:03.438Z,0.9
2018-01-15T06:27:02.893Z,0.8
2018-01-15T06:32:07.857Z,0.8
2018-01-15T06:37:02.757Z,0.8
2018-01-15T06:42:03.390Z,0.7
2018-01-15T06:47:13.063Z,0.7
2018-01-15T06:52:03.306Z,0.7
2018-01-15T06:57:02.784Z,0.7
2018-01-15T07:02:13.921Z,0.7
2018-01-15T07:07:03.296Z,0.7
2018-01-15T07:12:02.752Z,0.6
2018-01-15T07:17:18.301Z,0.6
2018-01-15T07:22:02.758Z,0.7
2018-01-15T07:27:03.654Z,0.7
2018-01-15T07:32:19.083Z,0.8
2018-01-15T07:37:02.789Z,0.7
2018-01-15T07:42:03.349Z,0.9
2018-01-15T07:47:13.231Z,0.9
2018-01-15T07:52:02.822Z,1.1
2018-01-15T07:57:02.805Z,1.2
2018-01-15T08:02:13.210Z,1.2
2018-01-15T08:07:02.827Z,1.7
2018-01-15T08:12:02.913Z,1.7
2018-01-15T08:17:14.107Z,1.9
2018-01-15T08:22:03.625Z,2.1
2018-01-15T08:27:03.409Z,2.4
2018-01-15T08:32:13.528Z,2.7
2018-01-15T08:37:03.028Z,2.8
2018-01-15T08:42:02.943Z,2.9
2018-01-15T08:47:13.929Z,3.0
2018-01-15T08:52:02.749Z,3.0
2018-01-15T08:57:03.620Z,3.0
2018-01-15T09:02:13.521Z,3.0
2018-01-15T09:07:03.087Z,3.2
2018-01-15T09:12:03.007Z,3.3
2018-01-15T09:17:13.569Z,3.2
2018-01-15T09:22:03.406Z,3.3
2018-01-15T09:27:03.151Z,3.4
2018-01-15T09:32:13.042Z,3.4
2018-01-15T09:37:03.405Z,3.4
2018-01-15T09:42:03.216Z,3.5
2018-01-15T09:47:13.350Z,3.8
2018-01-15T09:52:03.524Z,3.7
2018-01-15T09:57:03.235Z,3.8
2018-01-15T10:02:13.444Z,4.1
2018-01-15T10:07:02.960Z,4.2
2018-01-15T10:12:03.581Z,4.2
2018-01-15T10:17:13.597Z,4.3
2018-01-15T10:22:03.133Z,4.4
2018-01-15T10:27:03.637Z,4.4
2018-01-15T10:32:13.538Z,4.5
2018-01-15T10:37:03.002Z,4.5
2018-01-15T10:42:02.882Z,4.5
2018-01-15T10:47:13.770Z,4.6
2018-01-15T10:52:02.997Z,5.0
2018-01-15T10:57:02.889Z,5.3
2018-01-15T11:02:13.910Z,5.3
2018-01-15T11:07:03.352Z,5.5
2018-01-15T11:12:03.213Z,5.4
2018-01-15T11:17:13.676Z,5.8
2018-01-15T11:22:03.175Z,5.8
2018-01-15T11:27:02.976Z,6.0
2018-01-15T11:32:22.940Z,6.0
2018-01-15T11:37:03.181Z,6.1
2018-01-15T11:42:03.300Z,6.2
2018-01-15T11:47:13.681Z,6.2
2018-01-15T11:52:02.988Z,6.5
2018-01-15T11:57:02.773Z,6.4
2018-01-15T12:02:13.625Z,6.7
2018-01-15T12:07:03.510Z,6.6
2018-01-15T12:12:03.457Z,6.8
2018-01-15T12:17:13.580Z,6.9
2018-01-15T12:22:03.025Z,7.0
2018-01-15T12:27:03.647Z,7.0
2018-01-15T12:32:13.777Z,6.8
2018-01-15T12:37:03.164Z,6.7
2018-01-15T12:42:02.930Z,6.7
2018-01-15T12:47:13.323Z,6.6
2018-01-15T12:52:02.799Z,6.6
2018-01-15T12:57:03.626Z,6.6
2018-01-15T13:02:13.859Z,6.5
2018-01-15T13:07:03.263Z,6.5
2018-01-15T13:12:03.216Z,6.4
2018-01-15T13:17:13.552Z,6.3
2018-01-15T13:22:02.978Z,6.3
2018-01-15T13:27:02.824Z,6.3
2018-01-15T13:32:12.501Z,6.2
2018-01-15T13:37:03.623Z,6.2
2018-01-15T13:42:03.350Z,6.1
2018-01-15T13:47:13.236Z,6.1
2018-01-15T13:52:02.819Z,6.0
2018-01-15T13:57:03.509Z,5.9
2018-01-15T14:02:13.132Z,5.8
2018-01-15T14:07:03.018Z,5.8
2018-01-15T14:12:03.636Z,5.8
2018-01-15T14:17:13.555Z,5.8
2018-01-15T14:22:02.950Z,5.7
2018-01-15T14:27:03.645Z,5.7
2018-01-15T14:32:13.710Z,5.8
2018-01-15T14:37:02.904Z,5.8
2018-01-15T14:42:03.029Z,5.8
2018-01-15T14:47:11.462Z,5.8
2018-01-15T14:52:02.719Z,5.8
2018-01-15T14:57:03.348Z,5.9
2018-01-15T15:02:13.890Z,5.9
2018-01-15T15:07:03.437Z,5.8
2018-01-15T15:12:03.367Z,5.8
2018-01-15T15:17:13.453Z,5.8
2018-01-15T15:22:02.879Z,5.7
2018-01-15T15:27:03.759Z,5.7
2018-01-15T15:32:13.613Z,5.6
2018-01-15T15:37:03.063Z,5.6
2018-01-15T15:42:02.751Z,5.5
2018-01-15T15:47:13.023Z,5.5
2018-01-15T15:52:02.726Z,5.4
2018-01-15T15:57:03.105Z,5.4
2018-01-15T16:02:12.964Z,5.3
2018-01-15T16:07:03.575Z,5.2
2018-01-15T16:12:03.258Z,5.2
2018-01-15T16:17:13.789Z,5.1
2018-01-15T16:22:03.013Z,5.1
2018-01-15T16:27:03.472Z,5.1
2018-01-15T16:32:08.112Z,5.0
2018-01-15T16:37:02.934Z,5.0
2018-01-15T16:42:02.848Z,5.0
2018-01-15T16:47:03.067Z,5.0
2018-01-15T16:52:03.243Z,4.9
2018-01-15T16:57:02.791Z,4.9
2018-01-15T17:02:03.072Z,4.8
2018-01-15T17:07:03.353Z,4.7
2018-01-15T17:12:02.807Z,4.7
2018-01-15T17:17:03.513Z,4.7
2018-01-15T17:22:03.404Z,4.7
2018-01-15T17:27:03.545Z,4.7
2018-01-15T17:32:02.810Z,4.8
2018-01-15T17:37:02.940Z,4.7
2018-01-15T17:42:03.215Z,4.6
2018-01-15T17:47:03.292Z,4.6
2018-01-15T17:52:03.627Z,4.6
2018-01-15T17:57:02.747Z,4.6
2018-01-15T18:02:03.011Z,4.7
2018-01-15T18:07:03.201Z,4.8
2018-01-15T18:12:03.812Z,4.9
2018-01-15T18:17:03.093Z,4.8
2018-01-15T18:22:03.551Z,4.8
2018-01-15T18:27:03.133Z,4.7
2018-01-15T18:32:03.322Z,4.7
2018-01-15T18:37:03.551Z,4.6
2018-01-15T18:42:03.042Z,4.7
2018-01-15T18:47:03.361Z,4.6
2018-01-15T18:52:03.576Z,4.6
2018-01-15T18:57:03.032Z,4.5
2018-01-15T19:02:03.580Z,4.5
2018-01-15T19:07:02.912Z,4.4
2018-01-15T19:12:03.430Z,4.4
2018-01-15T19:17:02.963Z,4.3
2018-01-15T19:22:02.815Z,4.4
2018-01-15T19:27:03.099Z,4.3
2018-01-15T19:32:03.849Z,4.3
2018-01-15T19:37:03.280Z,4.2
2018-01-15T19:42:03.580Z,4.2
2018-01-15T19:47:03.326Z,4.2
2018-01-15T19:52:03.271Z,4.2
2018-01-15T19:57:02.991Z,4.2
2018-01-15T20:02:03.924Z,4.3
2018-01-15T20:07:02.759Z,4.3
2018-01-15T20:12:03.256Z,4.3
2018-01-15T20:17:04.001Z,4.3
2018-01-15T20:22:03.348Z,4.3
2018-01-15T20:27:03.605Z,4.3
2018-01-15T20:32:02.891Z,4.3
2018-01-15T20:37:03.155Z,4.2
2018-01-15T20:42:03.319Z,4.3
2018-01-15T20:47:03.571Z,4.3
2018-01-15T20:52:02.725Z,4.4
2018-01-15T20:57:03.176Z,4.5
2018-01-15T21:02:03.270Z,4.5
2018-01-15T21:07:03.389Z,4.5
2018-01-15T21:12:03.616Z,4.8
2018-01-15T21:17:03.221Z,4.8
2018-01-15T21:22:03.408Z,5.0
2018-01-15T21:27:03.490Z,5.2
2018-01-15T21:32:03.559Z,5.4
2018-01-15T21:37:03.635Z,5.4
2018-01-15T21:42:03.060Z,5.5
2018-01-15T21:47:03.117Z,5.5
2018-01-15T21:52:03.245Z,5.5
2018-01-15T21:57:03.188Z,5.5
2018-01-15T22:02:03.365Z,5.5
2018-01-15T22:07:03.647Z,5.5
2018-01-15T22:12:02.932Z,5.5
2018-01-15T22:17:03.149Z,5.5
2018-01-15T22:22:03.469Z,5.5
2018-01-15T22:27:03.291Z,5.5
2018-01-15T22:32:03.534Z,5.6
2018-01-15T22:37:03.603Z,5.6
2018-01-15T22:42:02.949Z,5.6
2018-01-15T22:47:02.879Z,5.6
2018-01-15T22:52:03.099Z,5.7
2018-01-15T22:57:03.000Z,5.7
2018-01-15T23:02:03.380Z,5.7
2018-01-15T23:07:03.296Z,5.8
2018-01-15T23:12:03.346Z,5.8
2018-01-15T23:22:03.608Z,5.8
2018-01-15T23:27:03.221Z,5.9
2018-01-15T23:32:03.274Z,5.9
2018-01-15T23:37:03.283Z,5.9
2018-01-15T23:42:03.263Z,5.9
2018-01-15T23:47:03.233Z,5.9
2018-01-15T23:52:03.081Z,6.0
2018-01-15T23:57:03.010Z,5.9
